< < Back
Terminal Aerodrome Forecast


Current Version              Previous Versions:   1  2  3  4  5  6  7  8  9  

Terminal Aerodrome Forecast

032
FTUS42 KGSP 232320
TAFGSP
TAF
KGSP 232320Z 2400/2424 07004KT P6SM FEW060
     FM240900 09002KT P6SM BKN070
      TEMPO 2410/2414 BKN025
     FM241500 15005KT P6SM SCT050=

Latest METAR

966
SAUS70 KWBC 242100 RRF
MTRGSP
METAR KGSP 242053Z VRB05KT 10SM FEW032 FEW049 28/20 A3023 RMK AO2 SLP223
T02830200 56023


USA.gov is the U.S. government's official web portal to all federal, state and local government web resources and services.